Time;durP1;ratioP1;P1;durP2;ratioP2;P2;SDS_P1;SDS_P2;PMS_P1;PMS_P2;Temp;Humidity;BMP_temperature;BMP_pressure;BME280_temperature;BME280_humidity;BME280_pressure;Samples;Min_cycle;Max_cycle;Signal;HPM_P1;HPM_P2
2021/06/20 00:09:30;;;;;;;8.20;7.43;;;;;;;21.24;58.96;99426.13;522942;1087;117108;-60
2021/06/20 00:19:38;;;;;;;7.60;7.00;;;;;;;21.11;59.90;99413.31;532572;1087;116406;-61
2021/06/20 00:29:45;;;;;;;7.03;6.43;;;;;;;21.02;60.26;99417.03;517478;1087;115824;-62
2021/06/20 00:39:51;;;;;;;10.27;7.37;;;;;;;20.90;60.13;99405.06;514888;1087;115838;-60
2021/06/20 00:49:58;;;;;;;6.80;6.27;;;;;;;20.78;60.95;99396.53;514975;1087;116850;-60
2021/06/20 01:00:09;;;;;;;7.30;6.67;;;;;;;20.72;61.40;99385.55;516111;1087;115922;-60
2021/06/20 01:10:16;;;;;;;7.07;6.07;;;;;;;20.62;61.42;99378.72;530782;1087;115924;-60
2021/06/20 01:20:23;;;;;;;7.27;6.67;;;;;;;20.50;62.04;99378.25;521214;1085;116029;-60
2021/06/20 01:30:34;;;;;;;6.80;6.17;;;;;;;20.39;62.42;99376.73;527524;1087;115897;-60
2021/06/20 01:40:41;;;;;;;6.97;6.37;;;;;;;20.27;62.68;99370.93;521747;1089;116214;-61
2021/06/20 01:50:47;;;;;;;6.87;6.17;;;;;;;20.11;62.87;99355.77;521184;1088;116102;-61
2021/06/20 02:00:57;;;;;;;8.00;7.20;;;;;;;19.97;62.77;99357.25;529744;1087;116663;-60
2021/06/20 02:11:04;;;;;;;7.43;5.83;;;;;;;19.83;62.83;99348.03;532546;1089;116773;-61
2021/06/20 02:21:10;;;;;;;9.25;6.15;;;;;;;19.71;63.17;99344.88;531806;1088;116638;-61
2021/06/20 02:31:17;;;;;;;7.30;6.60;;;;;;;19.58;63.41;99340.86;525395;1089;116523;-61
2021/06/20 02:41:24;;;;;;;8.70;7.87;;;;;;;19.56;63.50;99342.83;527666;1087;116336;-60
2021/06/20 02:51:30;;;;;;;7.30;6.60;;;;;;;19.95;63.65;99345.93;526728;1089;116688;-61
2021/06/20 03:01:37;;;;;;;6.93;6.37;;;;;;;22.69;61.21;99358.88;526295;1089;116625;-61
2021/06/20 03:11:44;;;;;;;6.77;6.17;;;;;;;24.30;56.87;99365.31;531809;1088;116243;-60
2021/06/20 03:21:51;;;;;;;7.00;6.37;;;;;;;24.54;54.82;99365.91;532565;1090;117174;-61
2021/06/20 03:31:58;;;;;;;5.88;5.28;;;;;;;25.50;50.87;99355.47;524759;1088;115985;-61
2021/06/20 03:42:05;;;;;;;6.07;5.57;;;;;;;23.43;52.65;99364.39;531856;1087;116436;-61
2021/06/20 03:52:12;;;;;;;6.20;5.60;;;;;;;24.41;53.98;99344.31;515293;1087;116570;-60
2021/06/20 04:02:18;;;;;;;5.37;4.87;;;;;;;30.60;44.94;99334.10;526137;1087;116031;-61
2021/06/20 04:12:25;;;;;;;5.03;4.33;;;;;;;34.19;39.33;99332.91;521437;1087;116040;-61
2021/06/20 04:22:32;;;;;;;5.50;3.97;;;;;;;37.25;33.90;99333.25;518440;1088;116043;-61
2021/06/20 04:32:39;;;;;;;4.25;3.95;;;;;;;38.47;29.96;99326.23;522308;1087;116132;-61
2021/06/20 04:42:56;;;;;;;3.80;3.45;;;;;;;40.18;28.21;99317.50;532573;1087;116500;-61
2021/06/20 04:53:02;;;;;;;;;;;;;;;42.11;24.93;99326.77;516335;1087;116026;-62
2021/06/20 05:03:08;;;;;;;4.83;4.13;;;;;;;43.20;23.38;99331.14;532242;1087;102134;-61
2021/06/20 05:13:14;;;;;;;4.65;3.95;;;;;;;44.10;21.47;99321.27;532579;1086;116511;-60
2021/06/20 05:23:22;;;;;;;3.97;3.60;;;;;;;44.98;20.36;99313.70;532596;1088;116528;-61
2021/06/20 05:33:28;;;;;;;3.13;2.83;;;;;;;47.86;17.85;99341.99;531886;1088;116136;-61
2021/06/20 05:43:35;;;;;;;2.77;2.57;;;;;;;49.46;17.36;99370.72;530760;1087;116747;-61
2021/06/20 05:53:42;;;;;;;3.65;2.70;;;;;;;50.05;15.97;99381.83;531860;1087;117325;-62
2021/06/20 06:03:48;;;;;;;4.03;2.93;;;;;;;50.96;14.74;99395.20;532567;1087;115982;-62
2021/06/20 06:13:55;;;;;;;3.85;3.48;;;;;;;50.98;14.23;99401.27;532622;1087;116018;-62
2021/06/20 06:24:02;;;;;;;3.40;2.78;;;;;;;51.91;13.29;99385.17;531904;1087;116200;-62
2021/06/20 06:34:09;;;;;;;3.53;3.20;;;;;;;52.29;13.38;99369.11;532605;1087;116510;-62
2021/06/20 06:44:16;;;;;;;4.43;4.15;;;;;;;53.47;12.12;99366.57;532520;1087;116487;-62
2021/06/20 06:54:22;;;;;;;4.60;4.30;;;;;;;51.88;12.01;99363.54;531894;1087;117218;-62
2021/06/20 07:04:30;;;;;;;5.18;4.90;;;;;;;52.96;11.98;99349.52;532582;1087;116657;-63
2021/06/20 07:14:37;;;;;;;5.30;5.00;;;;;;;54.11;10.49;99372.69;532231;1089;116384;-62
2021/06/20 07:24:43;;;;;;;6.08;5.88;;;;;;;52.80;10.15;99355.45;532373;1088;175068;-61
2021/06/20 07:34:51;;;;;;;5.33;5.03;;;;;;;51.52;11.04;99342.40;532551;1088;116074;-61
2021/06/20 07:44:58;;;;;;;4.78;2.15;;;;;;;51.72;11.22;99356.22;531838;1088;116366;-61
2021/06/20 07:55:05;;;;;;;3.48;1.98;;;;;;;42.41;15.65;99348.30;532553;1090;116037;-60
2021/06/20 08:05:14;;;;;;;1.60;1.50;;;;;;;36.83;19.86;99347.09;532613;1088;116070;-61
2021/06/20 08:15:21;;;;;;;2.65;1.50;;;;;;;33.72;23.69;99320.83;531867;1090;116462;-62
2021/06/20 08:25:29;;;;;;;4.20;1.80;;;;;;;32.60;26.13;99320.89;520080;1088;116385;-62
2021/06/20 08:35:36;;;;;;;3.70;1.60;;;;;;;32.54;26.58;99324.63;530517;1088;116631;-62
2021/06/20 08:45:43;;;;;;;3.30;1.80;;;;;;;31.90;27.07;99328.52;516686;1088;116312;-60
2021/06/20 08:55:50;;;;;;;3.00;2.70;;;;;;;31.33;28.21;99317.48;518385;1087;116051;-61
2021/06/20 09:06:02;;;;;;;1.60;1.50;;;;;;;31.22;28.80;99313.73;531797;1089;117017;-63
2021/06/20 09:16:09;;;;;;;3.47;1.80;;;;;;;30.80;29.55;99309.36;530784;1087;116380;-62
2021/06/20 09:26:16;;;;;;;2.63;2.20;;;;;;;30.51;29.67;99300.30;520937;1087;119168;-61
2021/06/20 09:36:30;;;;;;;1.90;1.77;;;;;;;30.37;30.04;99286.21;521880;1088;116041;-61
2021/06/20 09:46:36;;;;;;;1.90;1.70;;;;;;;30.37;30.49;99265.36;527454;1088;116094;-62
2021/06/20 09:56:43;;;;;;;1.78;1.68;;;;;;;30.06;30.44;99264.66;531826;1088;116689;-62
2021/06/20 10:06:50;;;;;;;2.80;2.27;;;;;;;29.64;31.96;99222.25;523841;1087;115946;-61
2021/06/20 10:17:01;;;;;;;3.65;2.78;;;;;;;29.64;31.43;99223.09;518821;1087;116072;-61
2021/06/20 10:27:09;;;;;;;1.90;1.77;;;;;;;29.33;31.69;99216.07;529270;1087;116308;-64
2021/06/20 10:37:20;;;;;;;2.98;1.45;;;;;;;29.32;32.27;99215.23;532594;1086;116424;-62
2021/06/20 10:47:35;;;;;;;1.83;1.73;;;;;;;29.31;32.95;99188.42;517747;1087;115918;-61
2021/06/20 10:57:51;;;;;;;2.10;1.90;;;;;;;29.32;32.32;99199.02;525487;1087;116216;-60
2021/06/20 11:08:07;;;;;;;1.65;1.55;;;;;;;29.16;32.58;99183.47;519353;1088;115626;-60
2021/06/20 11:18:14;;;;;;;1.73;1.37;;;;;;;29.33;32.14;99187.14;518924;1088;116289;-63
2021/06/20 11:28:21;;;;;;;1.78;1.68;;;;;;;29.42;32.44;99192.22;528567;1087;116279;-60
2021/06/20 11:38:29;;;;;;;;;;;;;;;29.41;32.88;99177.86;532583;1087;116461;-60
2021/06/20 11:48:36;;;;;;;4.23;1.60;;;;;;;29.68;32.34;99166.64;523070;1086;103137;-61
2021/06/20 11:58:45;;;;;;;2.80;2.00;;;;;;;29.72;32.20;99164.27;516358;1088;115624;-61
2021/06/20 12:08:52;;;;;;;2.65;1.25;;;;;;;29.89;31.63;99176.04;518747;1089;116061;-61
2021/06/20 12:18:59;;;;;;;1.70;1.40;;;;;;;29.84;30.98;99175.10;514916;1088;116117;-61
2021/06/20 12:29:06;;;;;;;1.50;1.40;;;;;;;29.83;31.25;99147.20;515019;1088;115930;-61
2021/06/20 12:39:13;;;;;;;1.63;1.53;;;;;;;30.11;30.36;99153.81;515696;1088;115988;-61
2021/06/20 12:49:19;;;;;;;1.75;1.65;;;;;;;30.16;30.72;99126.84;528523;1087;116253;-61
2021/06/20 12:59:36;;;;;;;2.35;2.15;;;;;;;30.24;30.92;99130.24;519007;1087;116027;-60
2021/06/20 13:09:43;;;;;;;2.25;2.15;;;;;;;30.35;30.74;99121.26;531827;1087;115833;-61
2021/06/20 13:19:50;;;;;;;2.25;1.60;;;;;;;30.25;30.77;99111.06;532616;1087;117513;-61
2021/06/20 13:29:57;;;;;;;1.53;1.43;;;;;;;30.28;30.89;99110.57;526619;1087;116968;-61
2021/06/20 13:40:04;;;;;;;2.65;2.45;;;;;;;30.22;31.13;99114.22;515388;1087;116234;-61
2021/06/20 13:50:09;;;;;;;;;;;;;;;30.39;30.30;99122.41;519508;1087;115649;-61
2021/06/20 14:00:19;;;;;;;3.40;1.50;;;;;;;30.54;29.86;99113.77;529869;1087;102394;-60
2021/06/20 14:10:26;;;;;;;1.50;1.40;;;;;;;30.72;28.86;99111.96;518858;1087;116404;-61
2021/06/20 14:20:33;;;;;;;1.38;1.28;;;;;;;30.64;28.68;99109.64;520266;1087;115728;-62
2021/06/20 14:30:39;;;;;;;2.55;1.50;;;;;;;30.65;29.07;99106.70;527539;1087;117142;-60
2021/06/20 14:40:47;;;;;;;2.33;1.50;;;;;;;30.45;28.88;99093.55;527455;1087;116026;-61
2021/06/20 14:50:53;;;;;;;1.40;1.30;;;;;;;30.39;29.18;99070.16;519117;1087;116285;-62
2021/06/20 15:01:00;;;;;;;1.50;1.43;;;;;;;30.36;29.06;99060.63;527983;1089;116078;-61
2021/06/20 15:11:07;;;;;;;1.55;1.45;;;;;;;30.32;29.21;99054.86;529711;1089;117455;-62
2021/06/20 15:21:13;;;;;;;3.08;1.48;;;;;;;30.26;29.50;99042.31;531831;1089;117056;-62
2021/06/20 15:31:20;;;;;;;1.65;1.45;;;;;;;30.30;30.10;99029.92;528527;1090;117230;-62
2021/06/20 15:41:26;;;;;;;;;;;;;;;30.28;30.83;99032.05;532612;1087;115837;-61
2021/06/20 15:51:32;;;;;;;1.73;1.60;;;;;;;30.35;30.63;99015.66;524492;1087;103512;-61
2021/06/20 16:01:39;;;;;;;1.73;1.63;;;;;;;30.31;30.57;99009.09;530394;1089;116401;-61
2021/06/20 16:11:46;;;;;;;1.47;1.37;;;;;;;30.15;30.47;99003.38;514367;1088;116082;-62
2021/06/20 16:21:53;;;;;;;3.30;1.60;;;;;;;30.05;30.79;99008.59;527702;1087;116170;-62
2021/06/20 16:31:59;;;;;;;1.80;1.70;;;;;;;29.93;30.50;98995.90;532584;1087;116174;-62
2021/06/20 16:42:07;;;;;;;1.70;1.28;;;;;;;29.86;30.67;98994.41;528721;1087;117071;-62
2021/06/20 16:52:13;;;;;;;2.07;1.93;;;;;;;29.80;31.04;98989.97;529139;1087;116701;-62
2021/06/20 17:02:20;;;;;;;1.88;1.78;;;;;;;29.60;32.12;98996.59;530215;1088;116631;-62
2021/06/20 17:12:27;;;;;;;2.20;1.93;;;;;;;29.40;32.45;98997.77;531869;1087;116540;-63
2021/06/20 17:22:34;;;;;;;1.78;1.68;;;;;;;29.24;32.58;98996.60;525823;1090;116469;-62
2021/06/20 17:32:39;;;;;;;;;;;;;;;29.06;32.79;99003.79;519567;1087;115832;-60
2021/06/20 17:42:47;;;;;;;2.68;2.48;;;;;;;28.87;33.68;98999.55;532501;1087;103969;-61
2021/06/20 17:52:54;;;;;;;2.10;1.93;;;;;;;29.05;34.12;98983.23;526909;1087;116642;-61
2021/06/20 18:03:00;;;;;;;2.65;2.38;;;;;;;28.95;33.55;98986.50;525610;1087;117323;-61
2021/06/20 18:13:07;;;;;;;2.70;1.58;;;;;;;28.23;34.80;98976.60;532555;1085;116397;-62
2021/06/20 18:23:13;;;;;;;1.80;1.70;;;;;;;27.74;35.70;98971.20;521214;1089;115853;-63
2021/06/20 18:33:32;;;;;;;2.63;2.43;;;;;;;27.32;36.55;98963.77;528591;1087;115831;-63
2021/06/20 18:43:38;;;;;;;2.93;2.30;;;;;;;26.96;37.29;98982.38;532599;1087;117282;-62
2021/06/20 18:53:46;;;;;;;2.23;2.10;;;;;;;26.65;37.78;98987.54;525510;1088;116088;-62
2021/06/20 19:03:53;;;;;;;4.27;2.60;;;;;;;26.36;38.46;99005.14;521764;1087;115850;-62
2021/06/20 19:14:03;;;;;;;2.37;2.20;;;;;;;26.05;39.16;99012.93;516781;1087;116185;-61
2021/06/20 19:24:11;;;;;;;3.83;2.90;;;;;;;25.73;39.94;99019.06;520854;1087;115946;-61
2021/06/20 19:34:17;;;;;;;5.60;3.38;;;;;;;25.45;40.86;99030.06;528429;1087;116657;-61
2021/06/20 19:44:24;;;;;;;4.80;4.00;;;;;;;25.32;42.20;99055.08;505657;1087;10113276;-62
2021/06/20 19:54:31;;;;;;;6.83;4.37;;;;;;;25.15;42.53;99051.98;531719;1088;116602;-61
2021/06/20 20:04:37;;;;;;;4.60;4.00;;;;;;;24.95;43.79;99070.80;532403;1088;116416;-62
2021/06/20 20:14:44;;;;;;;5.40;3.43;;;;;;;24.72;44.35;99074.66;531656;1090;116350;-63
2021/06/20 20:24:51;;;;;;;4.93;4.03;;;;;;;24.46;45.56;99070.89;532299;1089;117266;-64
2021/06/20 20:34:58;;;;;;;5.40;4.25;;;;;;;24.26;46.30;99098.47;532356;1088;117078;-63
2021/06/20 20:45:06;;;;;;;5.07;4.67;;;;;;;24.05;47.49;99081.45;531543;1088;117681;-63
2021/06/20 20:55:13;;;;;;;;;;;;;;;23.88;48.33;99088.97;532377;1085;115726;-64
2021/06/20 21:05:21;;;;;;;7.85;5.50;;;;;;;23.70;49.12;99084.13;532662;1087;102466;-63
2021/06/20 21:15:29;;;;;;;5.33;4.83;;;;;;;23.53;49.88;99074.75;528421;1087;116045;-64
2021/06/20 21:25:36;;;;;;;4.87;4.47;;;;;;;23.36;50.58;99075.88;532459;1085;116028;-62
2021/06/20 21:35:43;;;;;;;5.65;4.43;;;;;;;23.25;51.36;99079.05;531759;1087;116102;-64
2021/06/20 21:45:50;;;;;;;6.90;5.20;;;;;;;23.08;52.18;99090.02;532458;1087;116091;-64
2021/06/20 21:55:57;;;;;;;5.48;4.98;;;;;;;22.92;52.55;99071.55;532517;1087;117091;-64
2021/06/20 22:06:04;;;;;;;7.37;5.10;;;;;;;22.79;53.10;99073.09;531756;1087;116758;-64
2021/06/20 22:16:11;;;;;;;6.53;5.57;;;;;;;22.68;53.79;99054.86;513797;1087;10001101;-64
2021/06/20 22:26:17;;;;;;;7.03;6.43;;;;;;;22.55;54.31;99060.89;517134;1087;116465;-63
2021/06/20 22:36:25;;;;;;;6.95;6.35;;;;;;;22.41;54.88;99065.27;519220;1087;115819;-63
2021/06/20 22:46:32;;;;;;;7.60;6.90;;;;;;;22.27;55.71;99064.27;527272;1087;116392;-64
2021/06/20 22:56:38;;;;;;;;;;;;;;;22.16;56.53;99038.83;524270;1088;116099;-64
2021/06/20 23:06:45;;;;;;;8.55;7.05;;;;;;;22.01;57.10;99030.86;523476;1087;102693;-64
2021/06/20 23:16:56;;;;;;;9.50;7.67;;;;;;;21.89;57.89;99018.99;514197;1087;115874;-63
2021/06/20 23:27:03;;;;;;;9.47;6.57;;;;;;;21.76;58.53;98999.11;513514;1087;116148;-63
2021/06/20 23:37:11;;;;;;;7.17;6.33;;;;;;;21.67;59.07;99000.22;522054;1087;116289;-64
2021/06/20 23:47:17;;;;;;;7.23;6.73;;;;;;;21.56;59.63;98985.44;514775;1088;116012;-65
2021/06/20 23:57:24;;;;;;;10.00;7.97;;;;;;;21.50;60.55;98996.88;518672;1088;116302;-63
